createdAt,value
2022-08-22T00:00:32.300Z,84
2022-08-22T00:01:32.280Z,84
2022-08-22T00:02:32.314Z,84
2022-08-22T00:02:55.559Z,83
2022-08-22T00:02:57.843Z,83
2022-08-22T00:02:58.998Z,83
2022-08-22T00:03:00.887Z,73
2022-08-22T00:03:12.735Z,82
2022-08-22T00:03:32.301Z,84
2022-08-22T00:04:33.347Z,84
2022-08-22T00:05:32.278Z,84
2022-08-22T00:06:32.276Z,84
2022-08-22T00:07:32.298Z,84
2022-08-22T00:08:32.366Z,84
2022-08-22T00:09:32.267Z,84
2022-08-22T00:10:32.301Z,84
2022-08-22T00:11:32.282Z,84
2022-08-22T00:12:32.319Z,84
2022-08-22T00:13:32.296Z,84
2022-08-22T00:14:32.313Z,84
2022-08-22T00:15:43.134Z,84
2022-08-22T00:16:32.309Z,84
2022-08-22T00:17:32.297Z,84
2022-08-22T00:18:32.397Z,83
2022-08-22T00:19:32.294Z,83
2022-08-22T00:20:32.293Z,83
2022-08-22T00:21:32.281Z,83
2022-08-22T00:22:32.277Z,83
2022-08-22T00:23:32.286Z,83
2022-08-22T00:24:32.305Z,83
2022-08-22T00:25:32.277Z,82
2022-08-22T00:26:32.289Z,83
2022-08-22T00:27:32.276Z,83
2022-08-22T00:28:32.311Z,83
2022-08-22T00:29:32.259Z,82
2022-08-22T00:30:32.265Z,82
2022-08-22T00:31:32.257Z,82
2022-08-22T00:32:32.279Z,82
2022-08-22T00:33:32.283Z,82
2022-08-22T00:34:32.274Z,81
2022-08-22T00:35:32.258Z,81
2022-08-22T00:36:32.275Z,81
2022-08-22T00:37:32.326Z,82
2022-08-22T00:38:32.311Z,82
2022-08-22T00:39:32.279Z,82
2022-08-22T00:40:32.297Z,81
2022-08-22T00:41:32.384Z,81
2022-08-22T00:42:32.413Z,81
2022-08-22T00:43:32.292Z,81
2022-08-22T00:44:32.278Z,81
2022-08-22T00:45:32.287Z,81
2022-08-22T00:46:32.279Z,81
2022-08-22T00:47:32.288Z,81
2022-08-22T00:48:32.279Z,81
2022-08-22T00:49:32.274Z,81
2022-08-22T00:50:32.253Z,81
2022-08-22T00:51:32.274Z,81
2022-08-22T00:52:32.275Z,81
2022-08-22T00:53:32.396Z,81
2022-08-22T00:54:32.332Z,81
2022-08-22T00:55:34.941Z,81
2022-08-22T00:56:32.264Z,81
2022-08-22T00:57:32.374Z,81
2022-08-22T00:58:32.317Z,81
2022-08-22T00:59:32.314Z,81
2022-08-22T01:00:35.073Z,81
2022-08-22T01:01:32.316Z,81
2022-08-22T01:02:32.288Z,81
2022-08-22T01:03:32.285Z,81
2022-08-22T01:04:32.292Z,81
2022-08-22T01:05:32.305Z,81
2022-08-22T01:06:32.314Z,81
2022-08-22T01:07:38.316Z,81
2022-08-22T01:08:32.257Z,81
2022-08-22T01:09:32.276Z,81
2022-08-22T01:10:32.642Z,81
2022-08-22T01:11:32.326Z,81
2022-08-22T01:12:32.262Z,81
2022-08-22T01:13:32.265Z,81
2022-08-22T01:14:34.348Z,81
2022-08-22T01:15:32.393Z,81
2022-08-22T01:16:32.262Z,81
2022-08-22T01:17:32.274Z,81
2022-08-22T01:18:32.281Z,81
2022-08-22T01:19:32.315Z,81
2022-08-22T01:20:32.263Z,81
2022-08-22T01:21:32.293Z,81
2022-08-22T01:22:32.284Z,81
2022-08-22T01:23:32.297Z,81
2022-08-22T01:24:32.287Z,81
2022-08-22T01:25:32.275Z,81
2022-08-22T01:26:32.278Z,81
2022-08-22T01:27:32.334Z,81
2022-08-22T01:28:32.285Z,81
2022-08-22T01:29:32.283Z,81
2022-08-22T01:30:32.260Z,81
2022-08-22T01:31:32.273Z,81
2022-08-22T01:32:32.354Z,81
2022-08-22T01:33:32.308Z,81
2022-08-22T01:34:32.268Z,81
2022-08-22T01:35:32.300Z,81
2022-08-22T01:36:32.275Z,81
2022-08-22T01:37:32.279Z,82
2022-08-22T01:38:32.279Z,82
2022-08-22T01:39:32.337Z,82
2022-08-22T01:40:32.569Z,82
2022-08-22T01:41:32.431Z,82
2022-08-22T01:42:32.461Z,82
2022-08-22T01:44:00.118Z,82
2022-08-22T01:44:32.464Z,82
2022-08-22T01:45:32.443Z,82
2022-08-22T01:46:32.410Z,82
2022-08-22T01:47:37.364Z,82
2022-08-22T01:48:32.452Z,82
2022-08-22T01:49:32.266Z,82
2022-08-22T01:50:32.481Z,82
2022-08-22T01:51:32.293Z,83
2022-08-22T01:52:32.257Z,82
2022-08-22T01:53:32.291Z,82
2022-08-22T01:54:32.277Z,82
2022-08-22T01:55:32.267Z,82
2022-08-22T01:56:32.258Z,83
2022-08-22T01:57:32.295Z,83
2022-08-22T01:58:32.285Z,83
2022-08-22T01:59:34.019Z,83
2022-08-22T02:00:34.734Z,83
2022-08-22T02:01:32.285Z,83
2022-08-22T02:02:32.241Z,83
2022-08-22T02:03:32.290Z,83
2022-08-22T02:04:32.272Z,83
2022-08-22T02:05:32.265Z,83
2022-08-22T02:06:32.297Z,83
2022-08-22T02:07:32.380Z,83
2022-08-22T02:08:32.277Z,83
2022-08-22T02:09:32.268Z,83
2022-08-22T02:10:32.273Z,83
2022-08-22T02:11:32.334Z,83
2022-08-22T02:12:32.284Z,83
2022-08-22T02:13:32.273Z,83
2022-08-22T02:14:32.294Z,83
2022-08-22T02:15:32.257Z,83
2022-08-22T02:16:32.320Z,83
2022-08-22T02:17:32.291Z,83
2022-08-22T02:18:32.270Z,83
2022-08-22T02:19:32.296Z,83
2022-08-22T02:20:32.244Z,83
2022-08-22T02:21:32.324Z,83
2022-08-22T02:22:32.286Z,84
2022-08-22T02:23:32.295Z,84
2022-08-22T02:24:32.247Z,84
2022-08-22T02:25:32.257Z,84
2022-08-22T02:26:32.252Z,84
2022-08-22T02:27:32.276Z,84
2022-08-22T02:28:32.246Z,84
2022-08-22T02:29:32.294Z,84
2022-08-22T02:30:32.256Z,84
2022-08-22T02:31:32.240Z,84
2022-08-22T02:32:32.241Z,84
2022-08-22T02:33:32.279Z,85
2022-08-22T02:34:32.253Z,85
2022-08-22T02:35:32.323Z,85
2022-08-22T02:36:32.269Z,85
2022-08-22T02:37:32.372Z,85
2022-08-22T02:38:32.281Z,85
2022-08-22T02:39:32.281Z,85
2022-08-22T02:40:32.251Z,85
2022-08-22T02:41:32.243Z,85
2022-08-22T02:42:32.301Z,85
2022-08-22T02:43:32.263Z,85
2022-08-22T02:44:32.272Z,85
2022-08-22T02:45:32.272Z,85
2022-08-22T02:46:32.233Z,85
2022-08-22T02:47:32.292Z,85
2022-08-22T02:48:32.263Z,85
2022-08-22T02:49:32.276Z,85
2022-08-22T02:50:32.255Z,85
2022-08-22T02:51:32.353Z,85
2022-08-22T02:52:32.277Z,85
2022-08-22T02:53:32.276Z,85
2022-08-22T02:54:32.272Z,85
2022-08-22T02:55:32.277Z,85
2022-08-22T02:56:32.407Z,85
2022-08-22T02:57:33.814Z,85
2022-08-22T02:58:32.250Z,85
2022-08-22T02:59:32.258Z,85
2022-08-22T03:00:33.296Z,86
2022-08-22T03:01:32.280Z,85
2022-08-22T03:02:32.255Z,85
2022-08-22T03:03:32.365Z,86
2022-08-22T03:04:32.281Z,86
2022-08-22T03:05:32.281Z,86
2022-08-22T03:06:32.354Z,86
2022-08-22T03:07:32.437Z,86
2022-08-22T03:08:32.292Z,85
2022-08-22T03:09:32.243Z,86
2022-08-22T03:10:32.393Z,86
2022-08-22T03:11:32.478Z,86
2022-08-22T03:12:32.273Z,86
2022-08-22T03:13:32.420Z,85
2022-08-22T03:14:32.330Z,86
2022-08-22T03:15:32.364Z,86
2022-08-22T03:16:32.305Z,86
2022-08-22T03:17:32.398Z,86
2022-08-22T03:18:32.394Z,86
2022-08-22T03:19:32.421Z,86
2022-08-22T03:20:32.371Z,86
2022-08-22T03:21:32.418Z,86
2022-08-22T03:22:32.387Z,86
2022-08-22T03:23:32.408Z,86
2022-08-22T03:24:32.316Z,86
2022-08-22T03:25:32.303Z,86
2022-08-22T03:26:32.315Z,86
2022-08-22T03:27:33.126Z,86
2022-08-22T03:28:32.320Z,86
2022-08-22T03:29:32.283Z,86
2022-08-22T03:30:32.266Z,87
2022-08-22T03:31:33.294Z,87
2022-08-22T03:32:32.390Z,87
2022-08-22T03:33:32.668Z,87
2022-08-22T03:34:32.231Z,87
2022-08-22T03:35:32.286Z,87
2022-08-22T03:36:32.250Z,87
2022-08-22T03:37:32.261Z,87
2022-08-22T03:38:32.254Z,87
2022-08-22T03:39:32.264Z,87
2022-08-22T03:40:32.359Z,87
2022-08-22T03:41:32.247Z,88
2022-08-22T03:42:32.370Z,88
2022-08-22T03:43:32.255Z,88
2022-08-22T03:44:32.271Z,88
2022-08-22T03:45:32.267Z,88
2022-08-22T03:46:32.230Z,88
2022-08-22T03:47:32.254Z,88
2022-08-22T03:48:32.285Z,88
2022-08-22T03:49:32.290Z,88
2022-08-22T03:50:32.208Z,88
2022-08-22T03:51:32.256Z,88
2022-08-22T03:52:32.268Z,88
2022-08-22T03:53:32.279Z,88
2022-08-22T03:54:32.253Z,88
2022-08-22T03:55:32.266Z,88
2022-08-22T03:56:32.269Z,88
2022-08-22T03:57:32.272Z,88
2022-08-22T03:58:32.233Z,88
2022-08-22T03:59:32.246Z,88
2022-08-22T04:00:32.308Z,88
2022-08-22T04:01:32.253Z,88
2022-08-22T04:02:43.182Z,88
2022-08-22T04:03:32.244Z,88
2022-08-22T04:04:32.358Z,88
2022-08-22T04:05:32.309Z,88
2022-08-22T04:06:32.245Z,88
2022-08-22T04:07:33.436Z,88
2022-08-22T04:08:32.303Z,88
2022-08-22T04:09:32.257Z,88
2022-08-22T04:10:32.236Z,87
2022-08-22T04:11:32.264Z,87
2022-08-22T04:12:32.387Z,87
2022-08-22T04:13:32.256Z,87
2022-08-22T04:14:32.273Z,87
2022-08-22T04:15:32.287Z,87
2022-08-22T04:16:32.234Z,87
2022-08-22T04:17:32.279Z,87
2022-08-22T04:18:33.407Z,87
2022-08-22T04:19:32.269Z,87
2022-08-22T04:20:32.253Z,87
2022-08-22T04:21:32.323Z,87
2022-08-22T04:22:32.247Z,87
2022-08-22T04:23:32.296Z,87
2022-08-22T04:24:32.293Z,87
2022-08-22T04:25:32.241Z,87
2022-08-22T04:26:32.240Z,87
2022-08-22T04:27:32.253Z,87
2022-08-22T04:28:32.258Z,87
2022-08-22T04:29:32.238Z,87
2022-08-22T04:30:32.250Z,87
2022-08-22T04:31:32.279Z,87
2022-08-22T04:32:32.332Z,87
2022-08-22T04:33:32.253Z,87
2022-08-22T04:34:32.248Z,87
2022-08-22T04:35:32.255Z,86
2022-08-22T04:36:32.302Z,86
2022-08-22T04:37:32.248Z,86
2022-08-22T04:38:32.236Z,86
2022-08-22T04:39:32.256Z,86
2022-08-22T04:40:32.263Z,86
2022-08-22T04:41:32.274Z,86
2022-08-22T04:42:33.295Z,86
2022-08-22T04:43:32.251Z,86
2022-08-22T04:44:32.265Z,86
2022-08-22T04:45:32.275Z,86
2022-08-22T04:46:36.703Z,86
2022-08-22T04:47:32.260Z,86
2022-08-22T04:48:32.253Z,86
2022-08-22T04:49:32.252Z,85
2022-08-22T04:50:32.274Z,85
2022-08-22T04:51:32.245Z,85
2022-08-22T04:52:32.254Z,85
2022-08-22T04:53:32.456Z,85
2022-08-22T04:54:32.260Z,85
2022-08-22T04:55:32.257Z,85
2022-08-22T04:56:32.253Z,84
2022-08-22T04:57:32.237Z,84
2022-08-22T04:58:32.322Z,84
2022-08-22T04:59:33.588Z,83
2022-08-22T05:00:32.244Z,82
2022-08-22T05:01:33.076Z,82
2022-08-22T05:02:32.275Z,83
2022-08-22T05:03:32.238Z,83
2022-08-22T05:04:32.263Z,82
2022-08-22T05:05:32.285Z,82
2022-08-22T05:06:32.271Z,82
2022-08-22T05:07:35.846Z,82
2022-08-22T05:08:32.315Z,82
2022-08-22T05:09:32.265Z,81
2022-08-22T05:10:32.245Z,80
2022-08-22T05:11:32.241Z,78
2022-08-22T05:12:32.834Z,78
2022-08-22T05:13:32.256Z,77
2022-08-22T05:14:32.318Z,77
2022-08-22T05:15:32.220Z,76
2022-08-22T05:16:32.294Z,75
2022-08-22T05:17:32.262Z,75
2022-08-22T05:18:32.237Z,74
2022-08-22T05:19:32.467Z,74
2022-08-22T05:20:32.282Z,74
2022-08-22T05:21:32.277Z,74
2022-08-22T05:22:32.187Z,73
2022-08-22T05:23:32.252Z,74
2022-08-22T05:24:32.236Z,74
2022-08-22T05:25:32.222Z,74
2022-08-22T05:26:32.267Z,74
2022-08-22T05:27:32.230Z,74
2022-08-22T05:28:32.273Z,74
2022-08-22T05:29:32.295Z,76
2022-08-22T05:30:32.257Z,76
2022-08-22T05:31:32.241Z,77
2022-08-22T05:32:32.269Z,77
2022-08-22T05:33:32.250Z,77
2022-08-22T05:34:32.306Z,77
2022-08-22T05:35:32.221Z,76
2022-08-22T05:36:32.235Z,76
2022-08-22T05:37:32.237Z,75
2022-08-22T05:38:32.270Z,75
2022-08-22T05:39:32.215Z,75
2022-08-22T05:40:32.473Z,74
2022-08-22T05:41:32.252Z,73
2022-08-22T05:42:32.254Z,72
2022-08-22T05:43:32.237Z,72
2022-08-22T05:44:32.262Z,72
2022-08-22T05:45:32.285Z,71
2022-08-22T05:46:32.291Z,71
2022-08-22T05:47:32.240Z,71
2022-08-22T05:48:32.228Z,71
2022-08-22T05:49:32.274Z,71
2022-08-22T05:50:32.281Z,71
2022-08-22T05:51:32.256Z,71
2022-08-22T05:52:32.279Z,70
2022-08-22T05:53:32.252Z,71
2022-08-22T05:54:34.450Z,70
2022-08-22T05:55:32.452Z,70
2022-08-22T05:56:32.287Z,69
2022-08-22T05:57:32.249Z,69
2022-08-22T05:58:32.271Z,70
2022-08-22T05:59:32.251Z,69
2022-08-22T06:00:32.248Z,69
2022-08-22T06:01:32.286Z,68
2022-08-22T06:02:32.255Z,67
2022-08-22T06:03:32.238Z,69
2022-08-22T06:04:32.262Z,69
2022-08-22T06:05:33.296Z,69
2022-08-22T06:06:32.255Z,69
2022-08-22T06:07:32.211Z,69
2022-08-22T06:08:32.260Z,69
2022-08-22T06:09:35.640Z,68
2022-08-22T06:10:32.274Z,68
2022-08-22T06:11:34.032Z,69
2022-08-22T06:12:32.318Z,68
2022-08-22T06:13:32.385Z,69
2022-08-22T06:14:32.714Z,69
2022-08-22T06:15:32.204Z,69
2022-08-22T06:16:32.263Z,70
2022-08-22T06:17:33.250Z,70
2022-08-22T06:18:32.273Z,72
2022-08-22T06:19:32.217Z,72
2022-08-22T06:20:32.242Z,72
2022-08-22T06:21:37.665Z,73
2022-08-22T06:22:32.248Z,73
2022-08-22T06:23:32.222Z,73
2022-08-22T06:24:32.242Z,73
2022-08-22T06:25:32.324Z,73
2022-08-22T06:26:32.244Z,73
2022-08-22T06:27:32.363Z,73
2022-08-22T06:28:32.248Z,73
2022-08-22T06:29:32.252Z,73
2022-08-22T06:30:32.277Z,72
2022-08-22T06:31:32.234Z,73
2022-08-22T06:32:58.343Z,73
2022-08-22T06:33:32.309Z,73
2022-08-22T06:34:32.422Z,73
2022-08-22T06:35:32.248Z,74
2022-08-22T06:36:32.267Z,74
2022-08-22T06:37:32.267Z,75
2022-08-22T06:38:32.264Z,75
2022-08-22T06:39:32.221Z,75
2022-08-22T06:40:32.418Z,75
2022-08-22T06:41:32.255Z,75
2022-08-22T06:42:32.263Z,75
2022-08-22T06:43:32.209Z,75
2022-08-22T06:44:32.374Z,75
2022-08-22T06:45:32.279Z,76
2022-08-22T06:46:32.266Z,76
2022-08-22T06:47:32.239Z,76
2022-08-22T06:48:32.240Z,76
2022-08-22T06:49:32.287Z,76
2022-08-22T06:50:32.355Z,76
2022-08-22T06:51:32.278Z,76
2022-08-22T06:52:32.235Z,75
2022-08-22T06:53:32.276Z,75
2022-08-22T06:54:34.372Z,75
2022-08-22T06:55:32.241Z,75
2022-08-22T06:56:32.228Z,75
2022-08-22T06:57:32.241Z,74
2022-08-22T06:58:34.364Z,74
2022-08-22T06:59:32.307Z,74
2022-08-22T07:00:32.233Z,73
2022-08-22T07:01:32.349Z,73
2022-08-22T07:02:32.262Z,73
2022-08-22T07:03:32.227Z,73
2022-08-22T07:04:32.238Z,73
2022-08-22T07:05:32.341Z,73
2022-08-22T07:06:32.230Z,73
2022-08-22T07:07:32.430Z,73
2022-08-22T07:08:36.005Z,72
2022-08-22T07:09:32.264Z,72
2022-08-22T07:10:32.335Z,71
2022-08-22T07:11:32.244Z,72
2022-08-22T07:12:32.224Z,71
2022-08-22T07:13:32.219Z,71
2022-08-22T07:14:32.228Z,71
2022-08-22T07:15:32.251Z,72
2022-08-22T07:16:32.244Z,72
2022-08-22T07:17:32.224Z,72
2022-08-22T07:18:32.233Z,72
2022-08-22T07:19:32.267Z,71
2022-08-22T07:20:32.244Z,71
2022-08-22T07:21:34.235Z,70
2022-08-22T07:22:32.258Z,70
2022-08-22T07:23:32.243Z,69
2022-08-22T07:24:32.226Z,69
2022-08-22T07:25:32.260Z,69
2022-08-22T07:26:32.234Z,69
2022-08-22T07:27:32.266Z,69
2022-08-22T07:28:37.003Z,69
2022-08-22T07:29:32.575Z,68
2022-08-22T07:30:32.228Z,68
2022-08-22T07:31:32.230Z,69
2022-08-22T07:32:32.181Z,67
2022-08-22T07:33:32.258Z,66
2022-08-22T07:34:32.310Z,67
2022-08-22T07:35:32.249Z,67
2022-08-22T07:36:32.275Z,67
2022-08-22T07:37:32.231Z,67
2022-08-22T07:38:32.247Z,67
2022-08-22T07:39:32.247Z,66
2022-08-22T07:40:32.299Z,65
2022-08-22T07:41:32.227Z,65
2022-08-22T07:42:32.224Z,62
2022-08-22T07:43:32.242Z,62
2022-08-22T07:44:32.219Z,61
2022-08-22T07:45:32.252Z,61
2022-08-22T07:46:32.176Z,62
2022-08-22T07:47:32.270Z,62
2022-08-22T07:48:33.462Z,61
2022-08-22T07:49:37.432Z,60
2022-08-22T07:50:41.461Z,60
2022-08-22T07:51:45.472Z,59
2022-08-22T07:52:49.479Z,59
2022-08-22T07:53:53.411Z,59
2022-08-22T07:54:57.483Z,60
2022-08-22T07:56:01.449Z,60
2022-08-22T07:57:05.459Z,60
2022-08-22T07:58:09.383Z,59
2022-08-22T07:59:13.477Z,58
2022-08-22T08:00:18.566Z,58
2022-08-22T08:01:21.491Z,58
2022-08-22T08:02:25.404Z,57
2022-08-22T08:03:29.430Z,58
2022-08-22T08:04:34.878Z,57
2022-08-22T08:05:32.251Z,57
2022-08-22T08:06:32.251Z,55
2022-08-22T08:07:32.248Z,57
2022-08-22T08:08:32.231Z,54
2022-08-22T08:09:32.211Z,55
2022-08-22T08:10:32.234Z,55
2022-08-22T08:11:32.205Z,55
2022-08-22T08:12:32.254Z,56
2022-08-22T08:13:32.251Z,56
2022-08-22T08:14:32.229Z,57
2022-08-22T08:15:32.274Z,57
2022-08-22T08:16:32.234Z,57
2022-08-22T08:17:32.522Z,56
2022-08-22T08:18:33.036Z,56
2022-08-22T08:19:32.219Z,56
2022-08-22T08:20:32.236Z,56
2022-08-22T08:21:32.245Z,55
2022-08-22T08:22:32.258Z,56
2022-08-22T08:23:32.222Z,57
2022-08-22T08:24:39.908Z,57
2022-08-22T08:25:32.267Z,58
2022-08-22T08:26:32.216Z,56
2022-08-22T08:27:32.228Z,56
2022-08-22T08:28:32.240Z,57
2022-08-22T08:29:32.216Z,56
2022-08-22T08:30:32.286Z,58
2022-08-22T08:31:32.239Z,56
2022-08-22T08:32:32.255Z,55
2022-08-22T08:33:32.284Z,54
2022-08-22T08:34:32.243Z,52
2022-08-22T08:35:32.265Z,53
2022-08-22T08:36:32.229Z,54
2022-08-22T08:37:32.190Z,53
2022-08-22T08:38:32.228Z,52
2022-08-22T08:39:35.260Z,52
2022-08-22T08:40:32.254Z,54
2022-08-22T08:41:32.222Z,54
2022-08-22T08:42:32.341Z,55
2022-08-22T08:43:32.236Z,54
2022-08-22T08:44:32.249Z,54
2022-08-22T08:45:32.249Z,54
2022-08-22T08:46:32.243Z,54
2022-08-22T08:47:32.251Z,54
2022-08-22T08:48:32.296Z,54
2022-08-22T08:49:33.670Z,52
2022-08-22T08:50:32.444Z,52
2022-08-22T08:51:32.242Z,51
2022-08-22T08:52:32.244Z,51
2022-08-22T08:53:32.214Z,49
2022-08-22T08:54:32.228Z,50
2022-08-22T08:55:32.215Z,51
2022-08-22T08:56:32.252Z,50
2022-08-22T08:57:32.230Z,50
2022-08-22T08:58:32.214Z,51
2022-08-22T08:59:32.263Z,48
2022-08-22T09:00:32.197Z,49
2022-08-22T09:01:32.296Z,48
2022-08-22T09:03:32.274Z,50
2022-08-22T09:04:32.227Z,50
2022-08-22T09:05:32.192Z,50
2022-08-22T09:06:32.231Z,49
2022-08-22T09:07:32.269Z,49
2022-08-22T09:08:32.244Z,49
2022-08-22T09:09:32.208Z,48
2022-08-22T09:10:32.305Z,48
2022-08-22T09:11:32.241Z,48
2022-08-22T09:12:32.261Z,48
2022-08-22T09:13:34.451Z,48
2022-08-22T09:14:32.249Z,48
2022-08-22T09:15:32.223Z,48
2022-08-22T09:16:32.239Z,47
2022-08-22T09:17:32.215Z,46
2022-08-22T09:18:32.219Z,46
2022-08-22T09:19:32.252Z,45
2022-08-22T09:20:32.256Z,47
2022-08-22T09:21:32.210Z,46
2022-08-22T09:22:34.930Z,47
2022-08-22T09:23:32.296Z,48
2022-08-22T09:24:32.214Z,47
2022-08-22T09:25:38.454Z,48
2022-08-22T09:26:32.305Z,48
2022-08-22T09:27:32.231Z,48
2022-08-22T09:28:32.235Z,46
2022-08-22T09:29:32.246Z,46
2022-08-22T09:30:32.566Z,45
2022-08-22T09:31:47.433Z,45
2022-08-22T09:32:32.190Z,46
2022-08-22T09:33:32.502Z,45
2022-08-22T09:34:32.237Z,45
2022-08-22T09:35:32.238Z,44
2022-08-22T09:36:32.221Z,43
2022-08-22T09:37:32.232Z,45
2022-08-22T09:38:32.249Z,46
2022-08-22T09:39:32.239Z,47
2022-08-22T09:40:32.208Z,47
2022-08-22T09:41:32.212Z,47
2022-08-22T09:42:32.217Z,47
2022-08-22T09:43:33.717Z,47
2022-08-22T09:44:32.210Z,47
2022-08-22T09:45:32.243Z,47
2022-08-22T09:46:36.700Z,46
2022-08-22T09:47:32.855Z,45
2022-08-22T09:48:32.213Z,45
2022-08-22T09:49:32.306Z,45
2022-08-22T09:50:32.228Z,45
2022-08-22T09:51:33.320Z,44
2022-08-22T09:52:34.938Z,44
2022-08-22T09:53:32.294Z,43
2022-08-22T09:54:32.850Z,43
2022-08-22T09:55:35.206Z,43
2022-08-22T09:56:32.219Z,44
2022-08-22T09:57:32.217Z,45
2022-08-22T09:58:32.319Z,46
2022-08-22T09:59:33.693Z,47
2022-08-22T10:00:32.224Z,47
2022-08-22T10:01:32.822Z,47
2022-08-22T10:02:32.226Z,48
2022-08-22T10:03:32.630Z,48
2022-08-22T10:04:32.199Z,47
2022-08-22T10:05:40.571Z,47
2022-08-22T10:06:32.209Z,47
2022-08-22T10:07:32.238Z,47
2022-08-22T10:08:32.236Z,47
2022-08-22T10:09:32.271Z,47
2022-08-22T10:10:32.217Z,45
2022-08-22T10:11:32.251Z,46
2022-08-22T10:12:36.143Z,47
2022-08-22T10:13:32.241Z,46
2022-08-22T10:14:32.259Z,46
2022-08-22T10:15:32.231Z,46
2022-08-22T10:16:32.213Z,45
2022-08-22T10:17:32.227Z,45
2022-08-22T10:18:32.224Z,45
2022-08-22T10:19:32.245Z,46
2022-08-22T10:20:32.185Z,46
2022-08-22T10:21:32.214Z,47
2022-08-22T10:22:32.219Z,47
2022-08-22T10:23:32.216Z,48
2022-08-22T10:24:32.225Z,46
2022-08-22T10:25:32.284Z,44
2022-08-22T10:26:37.954Z,45
2022-08-22T10:27:32.256Z,45
2022-08-22T10:28:32.197Z,46
2022-08-22T10:29:32.211Z,46
2022-08-22T10:30:32.255Z,46
2022-08-22T10:31:32.256Z,46
2022-08-22T10:32:32.215Z,45
2022-08-22T10:33:32.195Z,45
2022-08-22T10:34:32.377Z,45
2022-08-22T10:35:33.695Z,46
2022-08-22T10:36:32.365Z,46
2022-08-22T10:37:32.407Z,47
2022-08-22T10:38:32.376Z,46
2022-08-22T10:39:32.558Z,45
2022-08-22T10:40:32.540Z,41
2022-08-22T10:41:32.351Z,41
2022-08-22T10:42:35.225Z,42
2022-08-22T10:43:32.328Z,42
2022-08-22T10:44:32.228Z,44
2022-08-22T10:45:36.759Z,44
2022-08-22T10:46:32.292Z,44
2022-08-22T10:47:32.224Z,45
2022-08-22T10:48:32.233Z,45
2022-08-22T10:49:32.229Z,45
2022-08-22T10:50:32.235Z,45
2022-08-22T10:51:32.685Z,46
2022-08-22T10:52:32.289Z,46
2022-08-22T10:53:32.225Z,45
2022-08-22T10:54:32.241Z,45
2022-08-22T10:55:32.201Z,44
2022-08-22T10:56:32.239Z,44
2022-08-22T10:57:32.192Z,45
2022-08-22T10:58:32.233Z,45
2022-08-22T10:59:32.262Z,45
2022-08-22T11:00:32.255Z,46
2022-08-22T11:01:38.613Z,47
2022-08-22T11:02:32.234Z,47
2022-08-22T11:03:32.229Z,47
2022-08-22T11:04:32.300Z,46
2022-08-22T11:05:32.207Z,46
2022-08-22T11:06:32.203Z,46
2022-08-22T11:07:32.266Z,47
2022-08-22T11:08:34.626Z,46
2022-08-22T11:09:36.857Z,46
2022-08-22T11:10:32.225Z,45
2022-08-22T11:11:33.243Z,46
2022-08-22T11:12:35.180Z,46
2022-08-22T11:13:32.202Z,46
2022-08-22T11:14:32.217Z,46
2022-08-22T11:15:35.180Z,46
2022-08-22T11:16:32.228Z,46
2022-08-22T11:17:34.608Z,46
2022-08-22T11:18:32.201Z,46
2022-08-22T11:19:32.208Z,46
2022-08-22T11:20:32.195Z,46
2022-08-22T11:21:32.216Z,46
2022-08-22T11:22:32.208Z,44
2022-08-22T11:23:32.243Z,44
2022-08-22T11:24:35.748Z,44
2022-08-22T11:25:38.615Z,45
2022-08-22T11:26:33.761Z,45
2022-08-22T11:27:38.309Z,46
2022-08-22T11:28:32.260Z,46
2022-08-22T11:29:32.194Z,45
2022-08-22T11:30:36.464Z,46
2022-08-22T11:31:36.486Z,45
2022-08-22T11:32:32.229Z,46
2022-08-22T11:33:46.322Z,45
2022-08-22T11:34:32.241Z,45
2022-08-22T11:35:32.242Z,44
2022-08-22T11:36:32.279Z,45
2022-08-22T11:37:43.005Z,45
2022-08-22T11:38:32.977Z,46
2022-08-22T11:39:32.194Z,45
2022-08-22T11:40:32.343Z,46
2022-08-22T11:41:32.229Z,45
2022-08-22T11:42:32.221Z,46
2022-08-22T11:43:32.512Z,45
2022-08-22T11:44:32.301Z,45
2022-08-22T11:45:32.212Z,46
2022-08-22T11:46:32.207Z,44
2022-08-22T11:47:32.258Z,45
2022-08-22T11:48:32.208Z,44
2022-08-22T11:49:32.681Z,44
2022-08-22T11:50:32.212Z,44
2022-08-22T11:51:34.156Z,44
2022-08-22T11:52:33.082Z,44
2022-08-22T11:53:37.016Z,45
2022-08-22T11:54:42.066Z,45
2022-08-22T11:55:45.054Z,44
2022-08-22T11:56:49.014Z,44
2022-08-22T11:57:53.037Z,45
2022-08-22T11:58:57.012Z,44
2022-08-22T12:00:02.349Z,45
2022-08-22T12:01:05.049Z,44
2022-08-22T12:02:09.066Z,46
2022-08-22T12:03:13.547Z,45
2022-08-22T12:04:17.100Z,45
2022-08-22T12:05:26.222Z,45
2022-08-22T12:06:25.027Z,44
2022-08-22T12:07:28.995Z,44
2022-08-22T12:08:32.235Z,45
2022-08-22T12:09:32.226Z,45
2022-08-22T12:10:32.239Z,45
2022-08-22T12:11:32.203Z,44
2022-08-22T12:12:32.320Z,44
2022-08-22T12:13:34.958Z,43
2022-08-22T12:14:32.220Z,43
2022-08-22T12:15:33.296Z,44
2022-08-22T12:16:32.217Z,44
2022-08-22T12:17:55.409Z,44
2022-08-22T12:18:32.297Z,44
2022-08-22T12:19:32.731Z,44
2022-08-22T12:20:32.223Z,44
2022-08-22T12:21:32.215Z,43
2022-08-22T12:22:32.224Z,43
2022-08-22T12:23:48.769Z,44
2022-08-22T12:24:32.291Z,44
2022-08-22T12:25:32.289Z,43
2022-08-22T12:26:32.188Z,44
2022-08-22T12:27:32.200Z,44
2022-08-22T12:28:32.317Z,45
2022-08-22T12:29:33.901Z,45
2022-08-22T12:30:32.268Z,45
2022-08-22T12:31:32.201Z,44
2022-08-22T12:32:32.235Z,43
2022-08-22T12:33:33.121Z,43
2022-08-22T12:34:32.193Z,43
2022-08-22T12:35:33.282Z,43
2022-08-22T12:36:32.217Z,43
2022-08-22T12:37:32.266Z,43
2022-08-22T12:38:35.971Z,43
2022-08-22T12:39:32.223Z,45
2022-08-22T12:40:32.320Z,44
2022-08-22T12:41:35.080Z,43
2022-08-22T12:42:32.211Z,44
2022-08-22T12:43:32.403Z,43
2022-08-22T12:44:32.217Z,43
2022-08-22T12:45:32.200Z,44
2022-08-22T12:46:32.191Z,42
2022-08-22T12:47:32.291Z,43
2022-08-22T12:48:32.225Z,43
2022-08-22T12:49:32.227Z,43
2022-08-22T12:50:32.198Z,44
2022-08-22T12:51:32.196Z,44
2022-08-22T12:52:32.185Z,42
2022-08-22T12:53:32.209Z,42
2022-08-22T12:54:32.181Z,41
2022-08-22T12:55:32.333Z,41
2022-08-22T12:56:32.206Z,40
2022-08-22T12:57:32.213Z,40
2022-08-22T12:58:33.985Z,41
2022-08-22T12:59:32.219Z,39
2022-08-22T13:00:32.301Z,39
2022-08-22T13:01:34.084Z,41
2022-08-22T13:02:32.161Z,40
2022-08-22T13:03:32.212Z,38
2022-08-22T13:04:33.401Z,41
2022-08-22T13:05:34.268Z,38
2022-08-22T13:06:32.244Z,39
2022-08-22T13:07:32.266Z,38
2022-08-22T13:08:32.240Z,39
2022-08-22T13:09:32.209Z,41
2022-08-22T13:10:32.216Z,41
2022-08-22T13:11:32.324Z,42
2022-08-22T13:12:32.203Z,42
2022-08-22T13:13:37.056Z,43
2022-08-22T13:14:32.274Z,42
2022-08-22T13:15:32.221Z,42
2022-08-22T13:16:32.401Z,41
2022-08-22T13:17:32.207Z,41
2022-08-22T13:18:32.505Z,39
2022-08-22T13:19:32.207Z,39
2022-08-22T13:20:32.234Z,39
2022-08-22T13:21:35.943Z,39
2022-08-22T13:22:32.231Z,39
2022-08-22T13:23:32.214Z,40
2022-08-22T13:24:38.677Z,40
2022-08-22T13:25:32.210Z,40
2022-08-22T13:26:35.300Z,40
2022-08-22T13:27:32.209Z,41
2022-08-22T13:28:32.214Z,41
2022-08-22T13:29:39.593Z,41
2022-08-22T13:30:32.215Z,41
2022-08-22T13:31:32.194Z,41
2022-08-22T13:32:32.214Z,41
2022-08-22T13:33:32.260Z,41
2022-08-22T13:34:34.849Z,41
2022-08-22T13:35:32.485Z,40
2022-08-22T13:36:32.204Z,40
2022-08-22T13:37:32.220Z,40
2022-08-22T13:38:32.189Z,40
2022-08-22T13:39:32.218Z,41
2022-08-22T13:40:33.448Z,40
2022-08-22T13:41:32.202Z,40
2022-08-22T13:42:32.253Z,41
2022-08-22T13:43:32.250Z,40
2022-08-22T13:44:32.232Z,41
2022-08-22T13:45:32.253Z,41
2022-08-22T13:46:35.514Z,42
2022-08-22T13:47:32.214Z,43
2022-08-22T13:48:32.273Z,42
2022-08-22T13:49:32.204Z,41
2022-08-22T13:50:37.053Z,42
2022-08-22T13:51:32.272Z,41
2022-08-22T13:52:32.339Z,41
2022-08-22T13:53:32.217Z,41
2022-08-22T13:54:35.287Z,42
2022-08-22T13:55:32.219Z,42
2022-08-22T13:56:32.231Z,42
2022-08-22T13:57:32.208Z,42
2022-08-22T13:58:32.162Z,41
2022-08-22T13:59:50.260Z,41
2022-08-22T14:00:32.357Z,42
2022-08-22T14:01:32.333Z,41
2022-08-22T14:02:34.301Z,41
2022-08-22T14:03:32.249Z,41
2022-08-22T14:04:36.267Z,41
2022-08-22T14:05:32.177Z,42
2022-08-22T14:06:35.523Z,42
2022-08-22T14:07:32.192Z,42
2022-08-22T14:08:32.195Z,42
2022-08-22T14:09:32.762Z,42
2022-08-22T14:10:32.191Z,42
2022-08-22T14:11:32.247Z,41
2022-08-22T14:12:33.320Z,42
2022-08-22T14:13:32.274Z,42